Time;durP1;ratioP1;P1;durP2;ratioP2;P2;SDS_P1;SDS_P2;PMS_P1;PMS_P2;Temp;Humidity;BMP_temperature;BMP_pressure;BME280_temperature;BME280_humidity;BME280_pressure;Samples;Min_cycle;Max_cycle;Signal;HPM_P1;HPM_P2
2022/04/05 00:01:11;;;;;;;;;;;;;;;;;;5114274;28;19915;-56
2022/04/05 00:03:38;;;;;;;;;;;;;;;;;;5113268;28;20011;-51
2022/04/05 00:06:04;;;;;;;;;;;;;;;;;;5113717;28;19920;-46
2022/04/05 00:08:30;;;;;;;;;;;;;;;;;;5112080;28;19908;-52
2022/04/05 00:10:57;;;;;;;;;;;;;;;;;;5113236;28;19919;-51
2022/04/05 00:13:23;;;;;;;;;;;;;;;;;;5113820;28;19908;-50
2022/04/05 00:15:50;;;;;;;;;;;;;;;;;;5113354;28;19912;-55
2022/04/05 00:18:16;;;;;;;;;;;;;;;;;;5112869;28;19908;-52
2022/04/05 00:20:43;;;;;;;;;;;;;;;;;;5112112;28;19912;-53
2022/04/05 00:23:09;;;;;;;;;;;;;;;;;;5113157;28;19914;-56
2022/04/05 00:25:36;;;;;;;;;;;;;;;;;;5113008;28;20414;-48
2022/04/05 00:28:03;;;;;;;;;;;;;;;;;;5113073;28;19908;-54
2022/04/05 00:30:29;;;;;;;;;;;;;;;;;;5112785;28;19923;-53
2022/04/05 00:32:56;;;;;;;;;;;;;;;;;;5112666;28;19907;-55
2022/04/05 00:35:23;;;;;;;;;;;;;;;;;;5113528;28;19908;-56
2022/04/05 00:37:50;;;;;;;;;;;;;;;;;;5113232;28;19908;-56
2022/04/05 00:40:16;;;;;;;;;;;;;;;;;;5112564;28;19908;-56
2022/04/05 00:42:43;;;;;;;;;;;;;;;;;;5112570;28;19912;-53
2022/04/05 00:45:16;;;;;;;;;;;;;;;;;;5113087;28;19908;-55
2022/04/05 00:47:44;;;;;;;;;;;;;;;;;;5111209;28;20428;-55
2022/04/05 00:50:11;;;;;;;;;;;;;;;;;;5112683;28;19916;-54
2022/04/05 00:52:37;;;;;;;;;;;;;;;;;;5112580;28;19920;-56
2022/04/05 00:55:04;;;;;;;;;;;;;;;;;;5112091;28;19960;-54
2022/04/05 00:57:30;;;;;;;;;;;;;;;;;;5112277;28;19915;-59
2022/04/05 00:59:57;;;;;;;;;;;;;;;;;;5112498;28;19930;-53
2022/04/05 01:02:25;;;;;;;;;;;;;;;;;;5112917;28;19907;-54
2022/04/05 01:04:51;;;;;;;;;;;;;;;;;;5112075;28;20045;-55
2022/04/05 01:07:18;;;;;;;;;;;;;;;;;;5094283;28;20045;-51
2022/04/05 01:09:44;;;;;;;;;;;;;;;;;;5092332;28;19920;-50
2022/04/05 01:12:11;;;;;;;;;;;;;;;;;;5091616;28;19908;-52
2022/04/05 01:14:37;;;;;;;;;;;;;;;;;;5092241;28;19908;-54
2022/04/05 01:17:04;;;;;;;;;;;;;;;;;;5092292;28;19912;-55
2022/04/05 01:19:30;;;;;;;;;;;;;;;;;;5092550;28;19908;-51
2022/04/05 01:21:57;;;;;;;;;;;;;;;;;;5092293;28;20050;-44
2022/04/05 01:24:23;;;;;;;;;;;;;;;;;;5092024;28;19908;-54
2022/04/05 01:26:50;;;;;;;;;;;;;;;;;;5092437;28;19965;-59
2022/04/05 01:29:16;;;;;;;;;;;;;;;;;;5092145;28;20011;-52
2022/04/05 01:31:45;;;;;;;;;;;;;;;;;;5093179;28;19961;-56
2022/04/05 01:34:12;;;;;;;;;;;;;;;;;;5096113;28;19930;-56
2022/04/05 01:36:41;;;;;;;;;;;;;;;;;;5096279;28;19953;-54
2022/04/05 01:39:09;;;;;;;;;;;;;;;;;;5095973;28;20484;-55
2022/04/05 01:41:35;;;;;;;;;;;;;;;;;;5094536;28;20438;-58
2022/04/05 01:44:01;;;;;;;;;;;;;;;;;;5095595;28;20049;-56
2022/04/05 01:46:28;;;;;;;;;;;;;;;;;;5096413;28;19904;-55
2022/04/05 01:48:55;;;;;;;;;;;;;;;;;;5096258;28;20006;-46
2022/04/05 01:51:21;;;;;;;;;;;;;;;;;;5096205;28;20250;-53
2022/04/05 01:53:47;;;;;;;;;;;;;;;;;;5095866;28;19912;-57
2022/04/05 01:56:14;;;;;;;;;;;;;;;;;;5095668;28;19998;-52
2022/04/05 01:58:40;;;;;;;;;;;;;;;;;;5096020;28;19908;-56
2022/04/05 02:01:07;;;;;;;;;;;;;;;;;;5096041;28;20295;-48
2022/04/05 02:03:33;;;;;;;;;;;;;;;;;;5095715;28;19973;-54
2022/04/05 02:06:00;;;;;;;;;;;;;;;;;;5095711;28;19999;-52
2022/04/05 02:08:26;;;;;;;;;;;;;;;;;;5095201;28;19969;-50
2022/04/05 02:10:53;;;;;;;;;;;;;;;;;;5095774;28;19912;-49
2022/04/05 02:13:19;;;;;;;;;;;;;;;;;;5095807;28;19940;-52
2022/04/05 02:15:46;;;;;;;;;;;;;;;;;;5095666;28;20003;-53
2022/04/05 02:18:12;;;;;;;;;;;;;;;;;;5095179;28;19962;-54
2022/04/05 02:20:39;;;;;;;;;;;;;;;;;;5095212;28;19975;-59
2022/04/05 02:23:06;;;;;;;;;;;;;;;;;;5094174;28;19908;-54
2022/04/05 02:25:32;;;;;;;;;;;;;;;;;;5095369;28;19948;-53
2022/04/05 02:27:59;;;;;;;;;;;;;;;;;;5094455;28;19989;-53
2022/04/05 02:30:25;;;;;;;;;;;;;;;;;;5095211;28;20379;-58
2022/04/05 02:32:52;;;;;;;;;;;;;;;;;;5095484;28;19915;-51
2022/04/05 02:35:18;;;;;;;;;;;;;;;;;;5093778;28;20027;-43
2022/04/05 02:37:45;;;;;;;;;;;;;;;;;;5093067;28;19920;-57
2022/04/05 02:40:11;;;;;;;;;;;;;;;;;;5094937;28;19962;-55
2022/04/05 02:42:39;;;;;;;;;;;;;;;;;;5094210;28;19908;-56
2022/04/05 02:45:05;;;;;;;;;;;;;;;;;;5094249;28;19912;-56
2022/04/05 02:47:32;;;;;;;;;;;;;;;;;;5094667;28;19916;-55
2022/04/05 02:49:59;;;;;;;;;;;;;;;;;;5094005;28;20007;-52
2022/04/05 02:52:26;;;;;;;;;;;;;;;;;;5095079;28;20046;-54
2022/04/05 02:54:52;;;;;;;;;;;;;;;;;;5094619;28;19944;-54
2022/04/05 02:57:19;;;;;;;;;;;;;;;;;;5094160;28;19915;-54
2022/04/05 02:59:45;;;;;;;;;;;;;;;;;;5094637;28;19912;-56
2022/04/05 03:02:11;;;;;;;;;;;;;;;;;;5094622;28;19908;-54
2022/04/05 03:04:38;;;;;;;;;;;;;;;;;;5094417;28;19920;-56
2022/04/05 03:07:05;;;;;;;;;;;;;;;;;;5094599;28;20301;-55
2022/04/05 03:09:31;;;;;;;;;;;;;;;;;;5094429;28;19916;-55
2022/04/05 03:11:58;;;;;;;;;;;;;;;;;;5094152;28;20085;-50
2022/04/05 03:14:24;;;;;;;;;;;;;;;;;;5094537;28;19908;-51
2022/04/05 03:16:51;;;;;;;;;;;;;;;;;;5094338;28;19908;-56
2022/04/05 03:19:17;;;;;;;;;;;;;;;;;;5094339;28;19912;-59
2022/04/05 03:21:44;;;;;;;;;;;;;;;;;;5094169;28;19915;-58
2022/04/05 03:24:10;;;;;;;;;;;;;;;;;;5093792;28;19961;-56
2022/04/05 03:26:36;;;;;;;;;;;;;;;;;;5093861;28;19999;-50
2022/04/05 03:29:03;;;;;;;;;;;;;;;;;;5093872;28;20312;-54
2022/04/05 03:31:30;;;;;;;;;;;;;;;;;;5093514;28;19909;-53
2022/04/05 03:33:56;;;;;;;;;;;;;;;;;;5093721;28;19912;-50
2022/04/05 03:36:22;;;;;;;;;;;;;;;;;;5093713;28;19919;-57
2022/04/05 03:38:49;;;;;;;;;;;;;;;;;;5093193;28;19914;-52
2022/04/05 03:41:15;;;;;;;;;;;;;;;;;;5093852;28;19908;-56
2022/04/05 03:43:42;;;;;;;;;;;;;;;;;;5093978;28;19912;-54
2022/04/05 03:46:08;;;;;;;;;;;;;;;;;;5093413;28;20003;-51
2022/04/05 03:48:35;;;;;;;;;;;;;;;;;;5093270;28;19912;-48
2022/04/05 03:51:08;;;;;;;;;;;;;;;;;;5093791;28;19919;-53
2022/04/05 03:53:34;;;;;;;;;;;;;;;;;;5093759;28;19958;-54
2022/04/05 03:56:01;;;;;;;;;;;;;;;;;;5092499;28;20358;-50
2022/04/05 03:58:27;;;;;;;;;;;;;;;;;;5093597;28;19908;-58
2022/04/05 04:00:54;;;;;;;;;;;;;;;;;;5093453;28;19992;-55
2022/04/05 04:03:20;;;;;;;;;;;;;;;;;;5092825;28;19908;-51
2022/04/05 04:05:46;;;;;;;;;;;;;;;;;;5093272;28;19954;-60
2022/04/05 04:08:13;;;;;;;;;;;;;;;;;;5093377;28;20351;-51
2022/04/05 04:10:39;;;;;;;;;;;;;;;;;;5092937;28;20335;-52
2022/04/05 04:13:06;;;;;;;;;;;;;;;;;;5092875;28;20017;-54
2022/04/05 04:15:32;;;;;;;;;;;;;;;;;;5093385;28;19951;-57
2022/04/05 04:17:59;;;;;;;;;;;;;;;;;;5092750;28;19919;-52
2022/04/05 04:20:25;;;;;;;;;;;;;;;;;;5093280;28;20278;-54
2022/04/05 04:22:52;;;;;;;;;;;;;;;;;;5092875;28;20009;-54
2022/04/05 04:25:18;;;;;;;;;;;;;;;;;;5092913;28;19915;-53
2022/04/05 04:27:45;;;;;;;;;;;;;;;;;;5093263;28;19912;-53
2022/04/05 04:30:14;;;;;;;;;;;;;;;;;;5092657;28;20324;-52
2022/04/05 04:32:40;;;;;;;;;;;;;;;;;;5092865;28;19908;-48
2022/04/05 04:35:07;;;;;;;;;;;;;;;;;;5092435;28;19965;-52
2022/04/05 04:37:33;;;;;;;;;;;;;;;;;;5092983;28;19909;-58
2022/04/05 04:40:00;;;;;;;;;;;;;;;;;;5093028;28;19912;-53
2022/04/05 04:42:26;;;;;;;;;;;;;;;;;;5092827;28;19908;-58
2022/04/05 04:44:53;;;;;;;;;;;;;;;;;;5092945;28;20016;-49
2022/04/05 04:47:19;;;;;;;;;;;;;;;;;;5091977;28;19961;-51
2022/04/05 04:49:46;;;;;;;;;;;;;;;;;;5092123;28;19920;-48
2022/04/05 04:52:12;;;;;;;;;;;;;;;;;;5091236;28;20274;-58
2022/04/05 04:54:38;;;;;;;;;;;;;;;;;;5092529;28;19953;-54
2022/04/05 04:57:05;;;;;;;;;;;;;;;;;;5092679;28;20370;-56
2022/04/05 04:59:31;;;;;;;;;;;;;;;;;;5092740;28;19908;-53
2022/04/05 05:01:58;;;;;;;;;;;;;;;;;;5091809;28;19916;-56
2022/04/05 05:04:24;;;;;;;;;;;;;;;;;;5092319;28;20163;-52
2022/04/05 05:06:52;;;;;;;;;;;;;;;;;;5091837;28;19974;-52
2022/04/05 05:09:19;;;;;;;;;;;;;;;;;;5092168;28;19986;-56
2022/04/05 05:11:45;;;;;;;;;;;;;;;;;;5092548;28;19982;-55
2022/04/05 05:14:11;;;;;;;;;;;;;;;;;;5092036;28;19908;-56
2022/04/05 05:16:38;;;;;;;;;;;;;;;;;;5092433;28;19908;-53
2022/04/05 05:19:05;;;;;;;;;;;;;;;;;;5092697;28;19993;-58
2022/04/05 05:21:31;;;;;;;;;;;;;;;;;;5091522;28;19908;-57
2022/04/05 05:23:58;;;;;;;;;;;;;;;;;;5092174;28;20337;-51
2022/04/05 05:26:24;;;;;;;;;;;;;;;;;;5092302;28;19912;-58
2022/04/05 05:28:51;;;;;;;;;;;;;;;;;;5091922;28;19954;-55
2022/04/05 05:31:17;;;;;;;;;;;;;;;;;;5092176;28;19957;-52
2022/04/05 05:33:44;;;;;;;;;;;;;;;;;;5092215;28;19908;-56
2022/04/05 05:36:10;;;;;;;;;;;;;;;;;;5092161;28;19909;-58
2022/04/05 05:38:36;;;;;;;;;;;;;;;;;;5092081;28;20315;-55
2022/04/05 05:41:04;;;;;;;;;;;;;;;;;;5092018;28;20416;-55
2022/04/05 05:43:30;;;;;;;;;;;;;;;;;;5090062;28;19918;-57
2022/04/05 05:45:58;;;;;;;;;;;;;;;;;;5091710;28;19915;-52
2022/04/05 05:48:24;;;;;;;;;;;;;;;;;;5091805;28;19908;-54
2022/04/05 05:50:51;;;;;;;;;;;;;;;;;;5092164;28;19920;-55
2022/04/05 05:53:17;;;;;;;;;;;;;;;;;;5092148;28;19908;-58
2022/04/05 05:55:44;;;;;;;;;;;;;;;;;;5091819;28;19912;-51
2022/04/05 05:58:11;;;;;;;;;;;;;;;;;;5091584;28;19908;-55
2022/04/05 06:00:37;;;;;;;;;;;;;;;;;;5092462;28;19965;-56
2022/04/05 06:03:04;;;;;;;;;;;;;;;;;;5091864;28;20371;-50
2022/04/05 06:05:30;;;;;;;;;;;;;;;;;;5091718;28;20263;-51
2022/04/05 06:07:57;;;;;;;;;;;;;;;;;;5091390;28;19908;-45
2022/04/05 06:10:24;;;;;;;;;;;;;;;;;;5090802;28;20007;-58
2022/04/05 06:12:50;;;;;;;;;;;;;;;;;;5091779;28;19908;-55
2022/04/05 06:15:17;;;;;;;;;;;;;;;;;;5091689;28;19904;-53
2022/04/05 06:17:44;;;;;;;;;;;;;;;;;;5091805;28;20309;-56
2022/04/05 06:20:10;;;;;;;;;;;;;;;;;;5094404;28;20059;-55
2022/04/05 06:22:37;;;;;;;;;;;;;;;;;;5094524;28;19931;-52
2022/04/05 06:25:03;;;;;;;;;;;;;;;;;;5095060;28;19970;-52
2022/04/05 06:27:30;;;;;;;;;;;;;;;;;;5095189;28;19915;-54
2022/04/05 06:29:56;;;;;;;;;;;;;;;;;;5094429;28;19960;-57
2022/04/05 06:32:22;;;;;;;;;;;;;;;;;;5095268;28;19908;-53
2022/04/05 06:34:49;;;;;;;;;;;;;;;;;;5094784;28;19914;-53
2022/04/05 06:37:16;;;;;;;;;;;;;;;;;;5094676;28;19912;-50
2022/04/05 06:39:42;;;;;;;;;;;;;;;;;;5094555;28;20321;-51
2022/04/05 06:42:08;;;;;;;;;;;;;;;;;;5094728;28;19908;-54
2022/04/05 06:44:35;;;;;;;;;;;;;;;;;;5094726;28;19912;-46
2022/04/05 06:47:01;;;;;;;;;;;;;;;;;;5094780;28;19915;-58
2022/04/05 06:49:29;;;;;;;;;;;;;;;;;;5094436;28;20239;-54
2022/04/05 06:51:56;;;;;;;;;;;;;;;;;;5094188;28;20011;-54
2022/04/05 06:54:23;;;;;;;;;;;;;;;;;;5094752;28;19908;-50
2022/04/05 06:56:49;;;;;;;;;;;;;;;;;;5094319;28;20304;-54
2022/04/05 06:59:16;;;;;;;;;;;;;;;;;;5094851;28;20382;-57
2022/04/05 07:01:42;;;;;;;;;;;;;;;;;;5094606;28;20247;-58
2022/04/05 07:04:09;;;;;;;;;;;;;;;;;;5093798;28;19920;-56
2022/04/05 07:06:36;;;;;;;;;;;;;;;;;;5093172;28;20078;-55
2022/04/05 07:09:03;;;;;;;;;;;;;;;;;;5093854;28;20275;-52
2022/04/05 07:11:30;;;;;;;;;;;;;;;;;;5094677;28;19937;-57
2022/04/05 07:13:57;;;;;;;;;;;;;;;;;;5093540;28;19914;-41
2022/04/05 07:16:23;;;;;;;;;;;;;;;;;;5094481;28;19908;-51
2022/04/05 07:18:50;;;;;;;;;;;;;;;;;;5094270;28;19908;-54
2022/04/05 07:21:18;;;;;;;;;;;;;;;;;;5093478;28;19908;-58
2022/04/05 07:23:46;;;;;;;;;;;;;;;;;;5093616;28;19912;-58
2022/04/05 07:26:13;;;;;;;;;;;;;;;;;;5093484;28;19908;-52
2022/04/05 07:28:39;;;;;;;;;;;;;;;;;;5093595;28;19908;-59
2022/04/05 07:31:06;;;;;;;;;;;;;;;;;;5094044;28;20363;-59
2022/04/05 07:33:32;;;;;;;;;;;;;;;;;;5094447;28;19998;-56
2022/04/05 07:35:59;;;;;;;;;;;;;;;;;;5094136;28;19908;-59
2022/04/05 07:38:25;;;;;;;;;;;;;;;;;;5092065;28;19911;-52
2022/04/05 07:40:52;;;;;;;;;;;;;;;;;;5093998;28;20358;-51
2022/04/05 07:43:18;;;;;;;;;;;;;;;;;;5093529;28;20311;-53
2022/04/05 07:45:48;;;;;;;;;;;;;;;;;;5093202;28;19912;-55
2022/04/05 07:48:15;;;;;;;;;;;;;;;;;;5093743;28;19914;-51
2022/04/05 07:50:41;;;;;;;;;;;;;;;;;;5093703;28;19969;-57
2022/04/05 07:53:08;;;;;;;;;;;;;;;;;;5093515;28;20432;-58
2022/04/05 07:55:34;;;;;;;;;;;;;;;;;;5093774;28;19912;-51
2022/04/05 07:58:01;;;;;;;;;;;;;;;;;;5093918;28;20377;-55
2022/04/05 08:00:28;;;;;;;;;;;;;;;;;;5093601;28;19908;-44
2022/04/05 08:02:54;;;;;;;;;;;;;;;;;;5093794;28;19961;-56
2022/04/05 08:05:23;;;;;;;;;;;;;;;;;;5093379;28;20390;-51
2022/04/05 08:07:50;;;;;;;;;;;;;;;;;;5092775;28;19912;-56
2022/04/05 08:10:16;;;;;;;;;;;;;;;;;;5093093;28;19923;-55
2022/04/05 08:12:43;;;;;;;;;;;;;;;;;;5093506;28;19908;-50
2022/04/05 08:15:13;;;;;;;;;;;;;;;;;;5093679;28;19908;-37
2022/04/05 08:17:40;;;;;;;;;;;;;;;;;;5094019;28;19951;-48
2022/04/05 08:20:07;;;;;;;;;;;;;;;;;;5093023;28;19908;-44
2022/04/05 08:22:33;;;;;;;;;;;;;;;;;;5093141;28;20374;-50
2022/04/05 08:25:00;;;;;;;;;;;;;;;;;;5093151;28;19911;-49
2022/04/05 08:27:26;;;;;;;;;;;;;;;;;;5093097;28;19908;-45
2022/04/05 08:29:53;;;;;;;;;;;;;;;;;;5092610;28;19994;-49
2022/04/05 08:32:19;;;;;;;;;;;;;;;;;;5093004;28;19947;-49
2022/04/05 08:34:46;;;;;;;;;;;;;;;;;;5093164;28;19911;-48
2022/04/05 08:37:12;;;;;;;;;;;;;;;;;;5093188;28;20404;-50
2022/04/05 08:39:39;;;;;;;;;;;;;;;;;;5093111;28;19920;-50
2022/04/05 08:42:05;;;;;;;;;;;;;;;;;;5092169;28;20014;-46
2022/04/05 08:44:32;;;;;;;;;;;;;;;;;;5092883;28;19904;-45
2022/04/05 08:46:58;;;;;;;;;;;;;;;;;;5092992;28;20285;-46
2022/04/05 08:49:24;;;;;;;;;;;;;;;;;;5092701;28;19916;-49
2022/04/05 08:51:51;;;;;;;;;;;;;;;;;;5092899;28;19923;-44
2022/04/05 08:54:17;;;;;;;;;;;;;;;;;;5092699;28;19980;-44
2022/04/05 08:56:44;;;;;;;;;;;;;;;;;;5092434;28;19935;-50
2022/04/05 08:59:10;;;;;;;;;;;;;;;;;;5093058;28;19992;-41
2022/04/05 09:01:37;;;;;;;;;;;;;;;;;;5092628;28;20377;-47
2022/04/05 09:04:04;;;;;;;;;;;;;;;;;;5092182;28;20442;-47
2022/04/05 09:06:30;;;;;;;;;;;;;;;;;;5092833;28;20267;-51
2022/04/05 09:08:57;;;;;;;;;;;;;;;;;;5092858;28;19977;-49
2022/04/05 09:11:23;;;;;;;;;;;;;;;;;;5092825;28;19987;-50
2022/04/05 09:13:50;;;;;;;;;;;;;;;;;;5093179;28;19908;-51
2022/04/05 09:16:16;;;;;;;;;;;;;;;;;;5092523;28;19995;-51
2022/04/05 09:18:44;;;;;;;;;;;;;;;;;;5092761;28;19908;-50
2022/04/05 09:21:10;;;;;;;;;;;;;;;;;;5092680;28;19908;-50
2022/04/05 09:23:41;;;;;;;;;;;;;;;;;;5092841;28;19915;-50
2022/04/05 09:26:07;;;;;;;;;;;;;;;;;;5092561;28;19915;-52
2022/04/05 09:28:34;;;;;;;;;;;;;;;;;;5092884;28;19919;-48
2022/04/05 09:31:00;;;;;;;;;;;;;;;;;;5092109;28;19999;-43
2022/04/05 09:33:27;;;;;;;;;;;;;;;;;;5092814;28;19933;-44
2022/04/05 09:35:55;;;;;;;;;;;;;;;;;;5092943;28;19908;-46
2022/04/05 09:38:22;;;;;;;;;;;;;;;;;;5092886;28;19908;-49
2022/04/05 09:40:52;;;;;;;;;;;;;;;;;;5092874;28;19908;-47
2022/04/05 09:43:18;;;;;;;;;;;;;;;;;;5092376;28;20003;-55
2022/04/05 09:45:45;;;;;;;;;;;;;;;;;;5092831;28;19916;-56
2022/04/05 09:48:11;;;;;;;;;;;;;;;;;;5092650;28;19908;-43
2022/04/05 09:50:38;;;;;;;;;;;;;;;;;;5092871;28;20371;-48
2022/04/05 09:53:05;;;;;;;;;;;;;;;;;;5092506;28;20295;-49
2022/04/05 09:55:31;;;;;;;;;;;;;;;;;;5096722;28;19911;-50
2022/04/05 09:57:58;;;;;;;;;;;;;;;;;;5095990;28;19935;-44
2022/04/05 10:00:24;;;;;;;;;;;;;;;;;;5092589;28;19957;-54
2022/04/05 10:02:51;;;;;;;;;;;;;;;;;;5094800;28;19916;-43
2022/04/05 10:05:17;;;;;;;;;;;;;;;;;;5088608;28;19924;-57
2022/04/05 10:07:45;;;;;;;;;;;;;;;;;;5087106;28;19960;-50
2022/04/05 10:10:12;;;;;;;;;;;;;;;;;;5091360;28;19920;-52
2022/04/05 10:12:38;;;;;;;;;;;;;;;;;;5094406;28;20373;-51
2022/04/05 10:15:05;;;;;;;;;;;;;;;;;;5093766;28;19912;-55
2022/04/05 10:17:31;;;;;;;;;;;;;;;;;;5088677;28;20329;-47
2022/04/05 10:19:58;;;;;;;;;;;;;;;;;;5094631;28;20227;-51
2022/04/05 10:22:24;;;;;;;;;;;;;;;;;;5092202;28;19916;-44
2022/04/05 10:24:52;;;;;;;;;;;;;;;;;;5092145;28;20582;-56
2022/04/05 10:27:18;;;;;;;;;;;;;;;;;;5090099;28;19998;-45
2022/04/05 10:29:44;;;;;;;;;;;;;;;;;;5091810;28;19916;-53
2022/04/05 10:32:11;;;;;;;;;;;;;;;;;;5091645;28;20442;-49
2022/04/05 10:34:37;;;;;;;;;;;;;;;;;;5093868;28;19916;-46
2022/04/05 10:37:05;;;;;;;;;;;;;;;;;;5088007;28;19959;-55
2022/04/05 10:39:31;;;;;;;;;;;;;;;;;;5090122;28;19908;-54
2022/04/05 10:41:58;;;;;;;;;;;;;;;;;;5093440;28;19939;-56
2022/04/05 10:44:27;;;;;;;;;;;;;;;;;;5094079;28;19908;-55
2022/04/05 10:46:53;;;;;;;;;;;;;;;;;;5090375;28;19916;-51
2022/04/05 10:49:20;;;;;;;;;;;;;;;;;;5093232;28;19924;-48
2022/04/05 10:51:46;;;;;;;;;;;;;;;;;;5093890;28;20397;-44
2022/04/05 10:54:19;;;;;;;;;;;;;;;;;;5093754;28;19931;-41
2022/04/05 10:56:46;;;;;;;;;;;;;;;;;;5090425;28;19918;-42
2022/04/05 10:59:12;;;;;;;;;;;;;;;;;;5093682;28;19912;-48
2022/04/05 11:01:48;;;;;;;;;;;;;;;;;;5094213;28;20314;-43
2022/04/05 11:04:20;;;;;;;;;;;;;;;;;;5092972;28;19999;-45
2022/04/05 11:06:47;;;;;;;;;;;;;;;;;;5089664;28;19908;-41
2022/04/05 11:09:13;;;;;;;;;;;;;;;;;;5093455;28;19965;-42
2022/04/05 11:11:40;;;;;;;;;;;;;;;;;;5093897;28;19919;-44
2022/04/05 11:14:06;;;;;;;;;;;;;;;;;;5093692;28;19908;-51
2022/04/05 11:16:33;;;;;;;;;;;;;;;;;;5089386;28;19969;-43
2022/04/05 11:18:59;;;;;;;;;;;;;;;;;;5093151;28;20007;-51
2022/04/05 11:21:26;;;;;;;;;;;;;;;;;;5093218;28;19908;-46
2022/04/05 11:23:53;;;;;;;;;;;;;;;;;;5094405;28;19915;-45
2022/04/05 11:26:20;;;;;;;;;;;;;;;;;;5091247;28;19946;-51
2022/04/05 11:28:46;;;;;;;;;;;;;;;;;;5091780;28;19915;-45
2022/04/05 11:31:13;;;;;;;;;;;;;;;;;;5095056;28;19912;-39
2022/04/05 11:33:41;;;;;;;;;;;;;;;;;;5093706;28;19908;-47
2022/04/05 11:36:08;;;;;;;;;;;;;;;;;;5093187;28;19908;-42
2022/04/05 11:38:43;;;;;;;;;;;;;;;;;;5090213;28;19957;-49
2022/04/05 11:41:10;;;;;;;;;;;;;;;;;;5094449;28;20270;-44
2022/04/05 11:43:39;;;;;;;;;;;;;;;;;;5095077;28;20009;-49
2022/04/05 11:46:05;;;;;;;;;;;;;;;;;;5101790;28;20048;-55
2022/04/05 11:48:32;;;;;;;;;;;;;;;;;;5114738;28;19908;-51
2022/04/05 11:50:59;;;;;;;;;;;;;;;;;;5114907;28;19916;-55
2022/04/05 11:53:25;;;;;;;;;;;;;;;;;;5114514;28;19980;-54
2022/04/05 11:56:01;;;;;;;;;;;;;;;;;;5114625;28;19908;-50
2022/04/05 11:58:29;;;;;;;;;;;;;;;;;;5114537;28;20380;-50
2022/04/05 12:00:55;;;;;;;;;;;;;;;;;;5114696;28;19926;-56
2022/04/05 12:03:21;;;;;;;;;;;;;;;;;;5114384;28;19918;-44
2022/04/05 12:05:48;;;;;;;;;;;;;;;;;;5114480;28;19969;-55
2022/04/05 12:08:15;;;;;;;;;;;;;;;;;;5113565;28;19944;-55
2022/04/05 12:10:41;;;;;;;;;;;;;;;;;;5114264;28;20227;-52
2022/04/05 12:13:11;;;;;;;;;;;;;;;;;;5113827;28;20224;-51
2022/04/05 12:15:38;;;;;;;;;;;;;;;;;;5114203;28;19915;-45
2022/04/05 12:18:04;;;;;;;;;;;;;;;;;;5113289;28;19903;-49
2022/04/05 12:20:31;;;;;;;;;;;;;;;;;;5114278;28;20358;-46
2022/04/05 12:22:57;;;;;;;;;;;;;;;;;;5113860;28;20273;-56
2022/04/05 12:25:24;;;;;;;;;;;;;;;;;;5114297;28;19909;-55
2022/04/05 12:27:50;;;;;;;;;;;;;;;;;;5114254;28;19908;-55
2022/04/05 12:30:17;;;;;;;;;;;;;;;;;;5114027;28;19927;-54
2022/04/05 12:32:43;;;;;;;;;;;;;;;;;;5114118;28;19918;-47
2022/04/05 12:35:13;;;;;;;;;;;;;;;;;;5114328;28;19918;-52
2022/04/05 12:37:40;;;;;;;;;;;;;;;;;;5113835;28;19908;-51
2022/04/05 12:40:08;;;;;;;;;;;;;;;;;;5113672;28;19911;-47
2022/04/05 12:42:35;;;;;;;;;;;;;;;;;;5113955;28;19911;-51
2022/04/05 12:45:01;;;;;;;;;;;;;;;;;;5093979;28;19965;-55
2022/04/05 12:47:27;;;;;;;;;;;;;;;;;;5093790;28;19915;-52
2022/04/05 12:49:54;;;;;;;;;;;;;;;;;;5093180;28;19920;-43
2022/04/05 12:52:21;;;;;;;;;;;;;;;;;;5093249;28;19908;-53
2022/04/05 12:54:47;;;;;;;;;;;;;;;;;;5093187;28;19908;-47
2022/04/05 12:57:14;;;;;;;;;;;;;;;;;;5093339;28;19908;-44
2022/04/05 12:59:40;;;;;;;;;;;;;;;;;;5092907;28;19908;-51
2022/04/05 13:02:08;;;;;;;;;;;;;;;;;;5093149;28;19978;-47
2022/04/05 13:04:34;;;;;;;;;;;;;;;;;;5092580;28;19924;-50
2022/04/05 13:07:01;;;;;;;;;;;;;;;;;;5092102;28;19909;-54
2022/04/05 13:09:27;;;;;;;;;;;;;;;;;;5091094;28;20355;-43
2022/04/05 13:11:54;;;;;;;;;;;;;;;;;;5091856;28;20011;-53
2022/04/05 13:14:20;;;;;;;;;;;;;;;;;;5093028;28;19908;-53
2022/04/05 13:16:48;;;;;;;;;;;;;;;;;;5092972;28;20003;-53
2022/04/05 13:19:14;;;;;;;;;;;;;;;;;;5092960;28;19908;-54
2022/04/05 13:21:41;;;;;;;;;;;;;;;;;;5092963;28;19908;-56
2022/04/05 13:24:09;;;;;;;;;;;;;;;;;;5092875;28;19909;-55
2022/04/05 13:26:35;;;;;;;;;;;;;;;;;;5093286;28;19958;-55
2022/04/05 13:29:02;;;;;;;;;;;;;;;;;;5096160;28;19908;-52
2022/04/05 13:31:29;;;;;;;;;;;;;;;;;;5097386;28;19951;-48
2022/04/05 13:33:55;;;;;;;;;;;;;;;;;;5097101;28;19912;-53
2022/04/05 13:36:22;;;;;;;;;;;;;;;;;;5097053;28;20057;-49
2022/04/05 13:38:48;;;;;;;;;;;;;;;;;;5096890;28;19962;-53
2022/04/05 13:41:14;;;;;;;;;;;;;;;;;;5095905;28;19908;-54
2022/04/05 13:43:41;;;;;;;;;;;;;;;;;;5097174;28;19908;-52
2022/04/05 13:46:08;;;;;;;;;;;;;;;;;;5096854;28;19908;-51
2022/04/05 13:48:35;;;;;;;;;;;;;;;;;;5096964;28;20006;-50
2022/04/05 13:51:01;;;;;;;;;;;;;;;;;;5096765;28;19916;-45
2022/04/05 13:53:28;;;;;;;;;;;;;;;;;;5096833;28;19934;-55
2022/04/05 13:55:54;;;;;;;;;;;;;;;;;;5096777;28;20032;-53
2022/04/05 13:58:21;;;;;;;;;;;;;;;;;;5096567;28;19948;-44
2022/04/05 14:00:47;;;;;;;;;;;;;;;;;;5096707;28;20285;-53
2022/04/05 14:03:14;;;;;;;;;;;;;;;;;;5096500;28;20374;-52
2022/04/05 14:05:40;;;;;;;;;;;;;;;;;;5096448;28;19942;-51
2022/04/05 14:08:07;;;;;;;;;;;;;;;;;;5096467;28;20374;-50
2022/04/05 14:10:33;;;;;;;;;;;;;;;;;;5096635;28;20317;-41
2022/04/05 14:13:00;;;;;;;;;;;;;;;;;;5096492;28;19930;-48
2022/04/05 14:15:26;;;;;;;;;;;;;;;;;;5096538;28;19935;-53
2022/04/05 14:17:52;;;;;;;;;;;;;;;;;;5096526;28;19947;-49
2022/04/05 14:20:19;;;;;;;;;;;;;;;;;;5095919;28;19909;-53
2022/04/05 14:22:45;;;;;;;;;;;;;;;;;;5096314;28;19947;-42
2022/04/05 14:25:14;;;;;;;;;;;;;;;;;;5096746;28;19908;-41
2022/04/05 14:27:40;;;;;;;;;;;;;;;;;;5096297;28;19931;-42
2022/04/05 14:30:07;;;;;;;;;;;;;;;;;;5095943;28;19920;-42
2022/04/05 14:32:33;;;;;;;;;;;;;;;;;;5096029;28;19912;-50
2022/04/05 14:35:01;;;;;;;;;;;;;;;;;;5096334;28;20361;-47
2022/04/05 14:37:27;;;;;;;;;;;;;;;;;;5096197;28;19915;-52
2022/04/05 14:39:54;;;;;;;;;;;;;;;;;;5095086;28;19908;-52
2022/04/05 14:42:20;;;;;;;;;;;;;;;;;;5092596;28;19938;-51
2022/04/05 14:44:47;;;;;;;;;;;;;;;;;;5095755;28;19912;-47
2022/04/05 14:47:13;;;;;;;;;;;;;;;;;;5095826;28;19908;-50
2022/04/05 14:49:40;;;;;;;;;;;;;;;;;;5095754;28;20273;-51
2022/04/05 14:52:06;;;;;;;;;;;;;;;;;;5095594;28;19969;-56
2022/04/05 14:54:33;;;;;;;;;;;;;;;;;;5095982;28;19908;-52
2022/04/05 14:56:59;;;;;;;;;;;;;;;;;;5095674;28;19912;-53
2022/04/05 14:59:26;;;;;;;;;;;;;;;;;;5095638;28;19912;-43
2022/04/05 15:01:52;;;;;;;;;;;;;;;;;;5095676;28;19908;-43
2022/04/05 15:04:19;;;;;;;;;;;;;;;;;;5095158;28;19916;-51
2022/04/05 15:06:46;;;;;;;;;;;;;;;;;;5095565;28;19912;-43
2022/04/05 15:09:12;;;;;;;;;;;;;;;;;;5095340;28;19912;-46
2022/04/05 15:11:39;;;;;;;;;;;;;;;;;;5095344;28;19908;-50
2022/04/05 15:14:05;;;;;;;;;;;;;;;;;;5095184;28;19915;-48
2022/04/05 15:16:31;;;;;;;;;;;;;;;;;;5095632;28;19909;-51
2022/04/05 15:18:58;;;;;;;;;;;;;;;;;;5095297;28;19919;-50
2022/04/05 15:21:25;;;;;;;;;;;;;;;;;;5095118;28;19909;-54
2022/04/05 15:23:51;;;;;;;;;;;;;;;;;;5095457;28;19908;-44
2022/04/05 15:26:18;;;;;;;;;;;;;;;;;;5095003;28;19908;-45
2022/04/05 15:28:46;;;;;;;;;;;;;;;;;;5094902;28;19908;-48
2022/04/05 15:31:13;;;;;;;;;;;;;;;;;;5094906;28;19916;-46
2022/04/05 15:33:40;;;;;;;;;;;;;;;;;;5094173;28;19915;-40
2022/04/05 15:36:07;;;;;;;;;;;;;;;;;;5094669;28;19908;-52
2022/04/05 15:38:34;;;;;;;;;;;;;;;;;;5094838;28;19908;-53
2022/04/05 15:41:00;;;;;;;;;;;;;;;;;;5093439;28;19939;-48
2022/04/05 15:43:27;;;;;;;;;;;;;;;;;;5094587;28;20312;-52
2022/04/05 15:45:53;;;;;;;;;;;;;;;;;;5094692;28;19991;-54
2022/04/05 15:48:20;;;;;;;;;;;;;;;;;;5094456;28;19908;-49
2022/04/05 15:50:48;;;;;;;;;;;;;;;;;;5094721;28;19916;-54
2022/04/05 15:53:15;;;;;;;;;;;;;;;;;;5094573;28;19912;-47
2022/04/05 15:55:41;;;;;;;;;;;;;;;;;;5094506;28;19908;-51
2022/04/05 15:58:08;;;;;;;;;;;;;;;;;;5093977;28;19938;-53
2022/04/05 16:00:34;;;;;;;;;;;;;;;;;;5094382;28;19912;-52
2022/04/05 16:03:01;;;;;;;;;;;;;;;;;;5094298;28;20347;-50
2022/04/05 16:05:27;;;;;;;;;;;;;;;;;;5093996;28;19920;-53
2022/04/05 16:07:54;;;;;;;;;;;;;;;;;;5094547;28;19959;-47
2022/04/05 16:10:20;;;;;;;;;;;;;;;;;;5093690;28;19916;-54
2022/04/05 16:12:47;;;;;;;;;;;;;;;;;;5094374;28;19912;-50
2022/04/05 16:15:13;;;;;;;;;;;;;;;;;;5094353;28;19953;-53
2022/04/05 16:17:40;;;;;;;;;;;;;;;;;;5094378;28;19943;-54
2022/04/05 16:20:06;;;;;;;;;;;;;;;;;;5093938;28;19999;-54
2022/04/05 16:22:33;;;;;;;;;;;;;;;;;;5094011;28;19908;-51
2022/04/05 16:24:59;;;;;;;;;;;;;;;;;;5094022;28;20270;-47
2022/04/05 16:27:26;;;;;;;;;;;;;;;;;;5094327;28;20327;-41
2022/04/05 16:29:52;;;;;;;;;;;;;;;;;;5094012;28;20321;-52
2022/04/05 16:32:19;;;;;;;;;;;;;;;;;;5093855;28;19934;-50
2022/04/05 16:34:45;;;;;;;;;;;;;;;;;;5093794;28;20390;-50
2022/04/05 16:37:11;;;;;;;;;;;;;;;;;;5093812;28;19998;-45
2022/04/05 16:39:38;;;;;;;;;;;;;;;;;;5093846;28;19915;-51
2022/04/05 16:42:04;;;;;;;;;;;;;;;;;;5093575;28;19912;-46